Castlegar/West Kootenay Regional Airport
CYCG : now visible

Airfield :











YOU CAN JOIN US ON...

 
LOGIN :

Register | Disclaimer

   EN    FR    IT 

 









Legend :    VFR   Marginal VFR   IFR   Intensive IFR   Very Intensive IFR
Visi :
Ceiling :
>= 8 km
>= 3000ft
5 to 8 km
1000 to 3000 ft
1500m to 5 km
500 to 1000 ft
800 to 1500m
200 to 500 ft
< 800m
< 200 ft
Symbols :   Thunderstorms  Fog  Heavy snow  Heavy precipitations  Wind > 20 kt






- Airport Elevation : 1624 ft
- IATA code : YCG


CYCG - Castlegar/West Kootenay Regional

CURRENT METAR :
  • 301700Z 33009KT 310V030 15SM FEW060 FEW085 FEW120 19/10 A3016 RMK CU1AC1AC1 CU TR AC TR SLP216 DENSITY ALT 2200FT

EXPIRED METARs :
  • 301500Z 36006KT 15SM FEW050 FEW085 13/09 A3018 RMK CU1AC2 CU TR SLP223

TAF TAF CYCG
Valid from the 30 at 15:00 until the 01 at 03:00 UTC


301440Z 3015/0103 35005KT P6SM FEW050 SCT080
FM302000 35008KT P6SM SCT080
TEMPO 3020/0103 P6SM VCTS BKN080CB RMK NXT FCST BY 301900Z
CZVR FIR / North America



MET'MAP, your aeronautical weather chart ! - Copyright ORBIFLY December 2007 - Disclaimer

ORBIFLY MET'MAP TEAM :

Programming & Development : Alexandra Zaïnal
Original concept : Baudouin d'Aumeries
Technical & hardware support : Manuel Goepfert
Assistance : Marc-Olivier Méhu




SOURCES & CREDITS :

   NOAA       Earth
Advisory